createdAt,value
2018-07-12T00:00:49.670Z,6.57
2018-07-12T00:05:41.169Z,6.20
2018-07-12T00:10:32.669Z,6.60
2018-07-12T00:15:24.150Z,6.33
2018-07-12T00:20:15.643Z,7.00
2018-07-12T00:25:07.110Z,6.37
2018-07-12T00:29:58.639Z,6.77
2018-07-12T00:34:50.140Z,6.83
2018-07-12T00:39:41.641Z,6.87
2018-07-12T00:44:33.169Z,7.00
2018-07-12T00:49:25.639Z,6.80
2018-07-12T00:54:17.122Z,7.77
2018-07-12T00:59:08.575Z,7.60
2018-07-12T01:04:00.058Z,8.03
2018-07-12T01:08:51.592Z,8.13
2018-07-12T01:13:43.130Z,8.27
2018-07-12T01:18:34.667Z,8.13
2018-07-12T01:23:26.177Z,8.60
2018-07-12T01:28:17.737Z,8.30
2018-07-12T01:33:09.274Z,8.57
2018-07-12T01:38:00.787Z,8.70
2018-07-12T01:42:52.279Z,8.50
2018-07-12T01:47:43.789Z,8.70
2018-07-12T01:52:35.272Z,9.23
2018-07-12T01:57:26.771Z,8.63
2018-07-12T02:02:18.291Z,8.03
2018-07-12T02:07:09.822Z,9.63
2018-07-12T02:12:01.358Z,8.60
2018-07-12T02:16:52.875Z,8.80
2018-07-12T02:21:44.438Z,8.07
2018-07-12T02:26:35.913Z,7.13
2018-07-12T02:31:27.426Z,7.77
2018-07-12T02:36:19.037Z,6.33
2018-07-12T02:41:10.532Z,6.90
2018-07-12T02:46:01.992Z,7.03
2018-07-12T02:50:53.479Z,6.57
2018-07-12T02:55:44.962Z,7.20
2018-07-12T03:00:36.432Z,7.67
2018-07-12T03:05:27.975Z,7.07
2018-07-12T03:10:19.474Z,7.17
2018-07-12T03:15:10.991Z,7.33
2018-07-12T03:20:02.553Z,6.20
2018-07-12T03:24:53.994Z,6.90
2018-07-12T03:29:45.450Z,6.67
2018-07-12T03:34:36.962Z,7.10
2018-07-12T03:39:28.472Z,6.87
2018-07-12T03:44:19.958Z,6.40
2018-07-12T03:49:11.501Z,6.23
2018-07-12T03:54:03.024Z,6.53
2018-07-12T03:58:54.523Z,5.67
2018-07-12T04:03:46.173Z,5.17
2018-07-12T04:08:38.167Z,5.07
2018-07-12T04:13:29.753Z,4.33
2018-07-12T04:18:21.222Z,4.90
2018-07-12T04:23:12.746Z,4.30
2018-07-12T04:28:04.225Z,4.10
2018-07-12T04:32:55.791Z,3.53
2018-07-12T04:37:47.398Z,3.73
2018-07-12T04:42:38.843Z,3.50
2018-07-12T04:47:30.323Z,4.07
2018-07-12T04:52:21.852Z,4.43
2018-07-12T04:57:13.395Z,5.17
2018-07-12T05:02:04.888Z,5.83
2018-07-12T05:06:56.413Z,5.40
2018-07-12T05:11:48.114Z,6.30
2018-07-12T05:16:39.657Z,6.57
2018-07-12T05:21:31.161Z,6.40
2018-07-12T05:26:22.739Z,7.10
2018-07-12T05:31:14.232Z,6.57
2018-07-12T05:37:12.786Z,7.03
2018-07-12T05:42:05.865Z,4.97
2018-07-12T05:47:00.370Z,4.67
2018-07-12T05:51:53.402Z,5.40
2018-07-12T05:56:46.685Z,6.00
2018-07-12T06:01:57.405Z,5.63
2018-07-12T06:06:50.583Z,4.20
2018-07-12T06:11:43.651Z,4.53
2018-07-12T06:16:36.604Z,4.40
2018-07-12T06:21:29.713Z,4.47
2018-07-12T06:26:22.900Z,5.10
2018-07-12T06:31:15.885Z,4.37
2018-07-12T06:36:08.864Z,4.17
2018-07-12T06:41:02.092Z,4.03
2018-07-12T06:45:55.363Z,3.50
2018-07-12T06:50:48.469Z,4.87
2018-07-12T06:55:41.473Z,7.23
2018-07-12T07:00:34.566Z,6.97
2018-07-12T07:05:27.786Z,8.90
2018-07-12T07:10:20.861Z,8.20
2018-07-12T07:15:13.860Z,8.10
2018-07-12T07:20:07.001Z,8.60
2018-07-12T07:25:00.062Z,8.87
2018-07-12T07:29:53.257Z,8.87
2018-07-12T07:34:46.280Z,8.00
2018-07-12T07:39:39.343Z,8.47
2018-07-12T07:44:32.419Z,8.73
2018-07-12T07:49:25.428Z,9.10
2018-07-12T07:54:18.483Z,8.80
2018-07-12T07:59:11.500Z,7.40
2018-07-12T08:04:04.684Z,8.53
2018-07-12T08:08:57.688Z,7.60
2018-07-12T08:13:50.836Z,8.65
2018-07-12T08:18:43.997Z,8.53
2018-07-12T08:23:37.187Z,8.00
2018-07-12T08:28:30.192Z,7.43
2018-07-12T08:33:23.605Z,8.03
2018-07-12T08:38:16.677Z,7.83
2018-07-12T08:43:09.596Z,8.03
2018-07-12T08:48:02.403Z,8.20
2018-07-12T08:52:55.060Z,7.50
2018-07-12T08:57:47.629Z,8.40
2018-07-12T09:02:40.461Z,7.73
2018-07-12T09:07:33.156Z,7.27
2018-07-12T09:12:25.839Z,6.40
2018-07-12T09:17:18.726Z,6.03
2018-07-12T09:22:11.380Z,6.33
2018-07-12T09:27:03.990Z,5.87
2018-07-12T09:31:56.656Z,5.80
2018-07-12T09:36:49.303Z,6.33
2018-07-12T09:41:41.875Z,6.10
2018-07-12T09:46:34.472Z,5.97
2018-07-12T09:51:27.040Z,5.87
2018-07-12T09:56:19.853Z,7.67
2018-07-12T10:01:18.253Z,5.80
2018-07-12T10:06:16.713Z,5.70
2018-07-12T10:11:10.784Z,5.83
2018-07-12T10:16:04.496Z,5.50
2018-07-12T10:20:57.389Z,5.80
2018-07-12T10:25:49.979Z,5.67
2018-07-12T10:30:42.567Z,5.70
2018-07-12T10:35:35.143Z,5.90
2018-07-12T10:40:27.743Z,5.27
2018-07-12T10:45:20.329Z,5.30
2018-07-12T10:50:12.889Z,5.23
2018-07-12T10:55:05.778Z,4.83
2018-07-12T10:59:58.419Z,5.53
2018-07-12T11:04:51.008Z,5.37
2018-07-12T11:09:43.607Z,5.40
2018-07-12T11:14:36.191Z,4.70
2018-07-12T11:19:28.876Z,5.17
2018-07-12T11:24:21.449Z,5.00
2018-07-12T11:29:14.067Z,5.30
2018-07-12T11:34:06.618Z,4.77
2018-07-12T11:38:59.265Z,4.77
2018-07-12T11:43:51.894Z,4.77
2018-07-12T11:48:44.928Z,4.20
2018-07-12T11:53:39.808Z,4.27
2018-07-12T11:58:32.524Z,4.67
2018-07-12T12:03:25.572Z,4.70
2018-07-12T12:08:18.212Z,4.70
2018-07-12T12:13:10.788Z,4.30
2018-07-12T12:18:03.558Z,4.80
2018-07-12T12:23:02.268Z,4.50
2018-07-12T12:27:55.749Z,6.07
2018-07-12T12:32:48.512Z,4.10
2018-07-12T12:37:41.097Z,4.30
2018-07-12T12:42:36.628Z,4.40
2018-07-12T12:47:29.260Z,4.33
2018-07-12T12:52:21.945Z,4.60
2018-07-12T12:57:14.540Z,4.43
2018-07-12T13:02:07.089Z,4.63
2018-07-12T13:12:04.241Z,4.67
2018-07-12T13:16:56.907Z,4.37
2018-07-12T13:21:49.467Z,4.90
2018-07-12T13:26:42.116Z,4.07
2018-07-12T13:31:34.837Z,4.33
2018-07-12T13:36:27.447Z,4.30
2018-07-12T13:41:20.203Z,4.20
2018-07-12T13:46:12.812Z,4.30
2018-07-12T13:51:05.647Z,5.03
2018-07-12T13:55:58.291Z,6.53
2018-07-12T14:00:50.996Z,5.10
2018-07-12T14:05:43.669Z,4.87
2018-07-12T14:10:36.260Z,4.67
2018-07-12T14:15:28.881Z,4.40
2018-07-12T14:20:21.494Z,4.80
2018-07-12T14:25:14.236Z,4.20
2018-07-12T14:30:06.908Z,3.77
2018-07-12T14:34:59.673Z,4.20
2018-07-12T14:39:52.290Z,4.07
2018-07-12T14:44:45.006Z,4.37
2018-07-12T14:49:37.595Z,3.50
2018-07-12T14:54:30.268Z,3.50
2018-07-12T14:59:22.848Z,3.47
2018-07-12T15:04:15.569Z,4.30
2018-07-12T15:09:08.795Z,3.93
2018-07-12T15:14:01.384Z,3.80
2018-07-12T15:18:54.114Z,3.43
2018-07-12T15:23:46.750Z,3.30
2018-07-12T15:28:39.397Z,3.50
2018-07-12T15:33:32.025Z,3.77
2018-07-12T15:38:24.713Z,3.53
2018-07-12T15:43:17.331Z,3.50
2018-07-12T15:48:09.939Z,3.53
2018-07-12T15:53:02.625Z,3.40
2018-07-12T15:57:55.225Z,4.03
2018-07-12T16:02:47.880Z,3.70
2018-07-12T16:07:40.491Z,3.93
2018-07-12T16:12:33.136Z,4.50
2018-07-12T16:17:25.761Z,3.73
2018-07-12T16:22:18.343Z,4.00
2018-07-12T16:27:11.071Z,4.93
2018-07-12T16:32:03.735Z,5.00
2018-07-12T16:36:56.344Z,4.63
2018-07-12T16:41:49.174Z,4.20
2018-07-12T16:46:41.812Z,4.57
2018-07-12T16:51:34.528Z,4.70
2018-07-12T16:56:27.176Z,4.90
2018-07-12T17:01:19.857Z,4.90
2018-07-12T17:06:12.489Z,7.70
2018-07-12T17:11:05.301Z,5.43
2018-07-12T17:15:58.050Z,6.27
2018-07-12T17:20:50.615Z,6.70
2018-07-12T17:25:43.206Z,6.27
2018-07-12T17:30:35.868Z,7.27
2018-07-12T17:35:28.471Z,8.07
2018-07-12T17:40:21.067Z,6.90
2018-07-12T17:45:13.700Z,7.23
2018-07-12T17:50:06.287Z,7.50
2018-07-12T17:54:58.890Z,7.00
2018-07-12T17:59:51.523Z,8.10
2018-07-12T18:04:44.176Z,7.60
2018-07-12T18:09:36.766Z,7.80
2018-07-12T18:14:29.471Z,7.87
2018-07-12T18:19:21.994Z,7.80
2018-07-12T18:24:14.782Z,7.63
2018-07-12T18:29:07.388Z,9.03
2018-07-12T18:33:59.985Z,8.90
2018-07-12T18:38:52.607Z,9.20
2018-07-12T18:43:45.175Z,9.67
2018-07-12T18:48:37.777Z,8.70
2018-07-12T18:53:30.324Z,7.80
2018-07-12T18:58:22.928Z,7.90
2018-07-12T19:03:15.539Z,7.97
2018-07-12T19:08:08.177Z,7.80
2018-07-12T19:13:00.920Z,8.07
2018-07-12T19:17:53.828Z,7.80
2018-07-12T19:22:46.395Z,7.83
2018-07-12T19:27:38.943Z,8.00
2018-07-12T19:32:31.506Z,8.00
2018-07-12T19:37:24.246Z,8.23
2018-07-12T19:42:16.799Z,8.50
2018-07-12T19:47:09.415Z,8.47
2018-07-12T19:52:01.949Z,8.03
2018-07-12T19:56:54.893Z,8.03
2018-07-12T20:01:48.594Z,8.10
2018-07-12T20:06:41.233Z,8.43
2018-07-12T20:11:33.834Z,8.47
2018-07-12T20:16:26.429Z,8.38
2018-07-12T20:21:19.111Z,8.57
2018-07-12T20:26:11.740Z,8.70
2018-07-12T20:31:04.333Z,8.60
2018-07-12T20:35:56.837Z,7.80
2018-07-12T20:40:49.438Z,8.80
2018-07-12T20:45:42.027Z,8.80
2018-07-12T20:50:34.647Z,8.43
2018-07-12T20:55:27.189Z,9.07
2018-07-12T21:00:19.796Z,8.40
2018-07-12T21:05:12.511Z,8.57
2018-07-12T21:10:05.436Z,8.37
2018-07-12T21:14:58.052Z,8.67
2018-07-12T21:19:50.608Z,9.23
2018-07-12T21:24:43.261Z,8.70
2018-07-12T21:29:35.829Z,9.23
2018-07-12T21:34:28.417Z,8.53
2018-07-12T21:39:21.213Z,9.03
2018-07-12T21:44:13.857Z,8.97
2018-07-12T21:49:06.469Z,8.50
2018-07-12T21:53:59.093Z,9.43
2018-07-12T21:58:51.777Z,8.83
2018-07-12T22:03:44.382Z,9.63
2018-07-12T22:08:37.001Z,8.77
2018-07-12T22:13:30.381Z,8.97
2018-07-12T22:18:22.946Z,9.13
2018-07-12T22:23:15.603Z,8.10
2018-07-12T22:28:08.229Z,8.80
2018-07-12T22:33:01.672Z,9.33
2018-07-12T22:37:54.455Z,8.67
2018-07-12T22:42:47.070Z,9.00
2018-07-12T22:47:39.684Z,8.63
2018-07-12T22:52:32.320Z,8.57
2018-07-12T22:57:24.946Z,9.23
2018-07-12T23:02:17.536Z,8.50
2018-07-12T23:07:10.483Z,8.20
2018-07-12T23:12:03.564Z,8.70
2018-07-12T23:16:56.186Z,8.43
2018-07-12T23:21:48.797Z,8.40
2018-07-12T23:26:41.452Z,8.40
2018-07-12T23:31:34.078Z,8.57
2018-07-12T23:36:26.668Z,8.50
2018-07-12T23:41:19.269Z,8.30
2018-07-12T23:46:11.927Z,8.03
2018-07-12T23:51:04.528Z,8.40
2018-07-12T23:55:57.157Z,8.30
